sensor_id;sensor_type;location;lat;lon;timestamp;temperature;humidity
25192;DHT22;13143;50.924;5.320;2023-07-30T00:02:04;20.10;99.90
25192;DHT22;13143;50.924;5.320;2023-07-30T00:04:30;20.10;99.90
25192;DHT22;13143;50.924;5.320;2023-07-30T00:06:56;20.10;99.90
25192;DHT22;13143;50.924;5.320;2023-07-30T00:09:22;20.00;99.90
25192;DHT22;13143;50.924;5.320;2023-07-30T00:11:48;20.00;99.90
25192;DHT22;13143;50.924;5.320;2023-07-30T00:14:15;20.00;99.90
25192;DHT22;13143;50.924;5.320;2023-07-30T00:16:41;20.00;99.90
25192;DHT22;13143;50.924;5.320;2023-07-30T00:19:07;20.00;99.90
25192;DHT22;13143;50.924;5.320;2023-07-30T00:21:33;20.00;99.90
25192;DHT22;13143;50.924;5.320;2023-07-30T00:23:59;20.00;99.90
25192;DHT22;13143;50.924;5.320;2023-07-30T00:26:25;19.90;99.90
25192;DHT22;13143;50.924;5.320;2023-07-30T00:28:52;19.90;99.90
25192;DHT22;13143;50.924;5.320;2023-07-30T00:31:18;19.90;99.90
25192;DHT22;13143;50.924;5.320;2023-07-30T00:33:44;19.90;99.90
25192;DHT22;13143;50.924;5.320;2023-07-30T00:36:10;19.90;99.90
25192;DHT22;13143;50.924;5.320;2023-07-30T00:38:36;19.90;99.90
25192;DHT22;13143;50.924;5.320;2023-07-30T00:41:02;19.90;99.90
25192;DHT22;13143;50.924;5.320;2023-07-30T00:43:29;19.90;99.90
25192;DHT22;13143;50.924;5.320;2023-07-30T00:45:55;19.90;99.90
25192;DHT22;13143;50.924;5.320;2023-07-30T00:48:21;19.90;99.90
25192;DHT22;13143;50.924;5.320;2023-07-30T00:50:47;19.80;99.90
25192;DHT22;13143;50.924;5.320;2023-07-30T00:53:14;19.80;99.90
25192;DHT22;13143;50.924;5.320;2023-07-30T00:55:42;19.80;99.90
25192;DHT22;13143;50.924;5.320;2023-07-30T00:58:10;19.80;99.90
25192;DHT22;13143;50.924;5.320;2023-07-30T01:00:37;19.80;99.90
25192;DHT22;13143;50.924;5.320;2023-07-30T01:03:03;19.80;99.90
25192;DHT22;13143;50.924;5.320;2023-07-30T01:05:30;19.70;99.90
25192;DHT22;13143;50.924;5.320;2023-07-30T01:07:56;19.70;99.90
25192;DHT22;13143;50.924;5.320;2023-07-30T01:10:23;19.70;99.90
25192;DHT22;13143;50.924;5.320;2023-07-30T01:12:50;19.70;99.90
25192;DHT22;13143;50.924;5.320;2023-07-30T01:15:17;19.70;99.90
25192;DHT22;13143;50.924;5.320;2023-07-30T01:17:45;19.70;99.90
25192;DHT22;13143;50.924;5.320;2023-07-30T01:20:11;19.60;99.90
25192;DHT22;13143;50.924;5.320;2023-07-30T01:22:38;19.60;99.90
25192;DHT22;13143;50.924;5.320;2023-07-30T01:25:04;19.60;99.90
25192;DHT22;13143;50.924;5.320;2023-07-30T01:27:36;19.60;99.90
25192;DHT22;13143;50.924;5.320;2023-07-30T01:30:17;19.60;99.90
25192;DHT22;13143;50.924;5.320;2023-07-30T01:32:46;19.50;99.90
25192;DHT22;13143;50.924;5.320;2023-07-30T01:35:14;19.50;99.90
25192;DHT22;13143;50.924;5.320;2023-07-30T01:37:41;19.50;99.90
25192;DHT22;13143;50.924;5.320;2023-07-30T01:40:09;19.50;99.90
25192;DHT22;13143;50.924;5.320;2023-07-30T01:42:36;19.40;99.90
25192;DHT22;13143;50.924;5.320;2023-07-30T01:45:03;19.40;99.90
25192;DHT22;13143;50.924;5.320;2023-07-30T01:47:30;19.40;99.90
25192;DHT22;13143;50.924;5.320;2023-07-30T01:49:56;19.40;99.90
25192;DHT22;13143;50.924;5.320;2023-07-30T01:52:22;19.40;99.90
25192;DHT22;13143;50.924;5.320;2023-07-30T01:54:48;19.40;99.90
25192;DHT22;13143;50.924;5.320;2023-07-30T01:57:14;19.30;99.90
25192;DHT22;13143;50.924;5.320;2023-07-30T01:59:41;19.30;99.90
25192;DHT22;13143;50.924;5.320;2023-07-30T02:02:07;19.30;99.90
25192;DHT22;13143;50.924;5.320;2023-07-30T02:04:33;19.30;99.90
25192;DHT22;13143;50.924;5.320;2023-07-30T02:07:00;19.30;99.90
25192;DHT22;13143;50.924;5.320;2023-07-30T02:09:26;19.30;99.90
25192;DHT22;13143;50.924;5.320;2023-07-30T02:11:52;19.20;99.90
25192;DHT22;13143;50.924;5.320;2023-07-30T02:14:18;19.20;99.90
25192;DHT22;13143;50.924;5.320;2023-07-30T02:16:45;19.20;99.90
25192;DHT22;13143;50.924;5.320;2023-07-30T02:19:11;19.20;99.90
25192;DHT22;13143;50.924;5.320;2023-07-30T02:21:37;19.20;99.90
25192;DHT22;13143;50.924;5.320;2023-07-30T02:24:11;19.20;99.90
25192;DHT22;13143;50.924;5.320;2023-07-30T02:26:38;19.20;99.90
25192;DHT22;13143;50.924;5.320;2023-07-30T02:29:05;19.20;99.90
25192;DHT22;13143;50.924;5.320;2023-07-30T02:31:31;19.20;99.90
25192;DHT22;13143;50.924;5.320;2023-07-30T02:33:57;19.10;99.90
25192;DHT22;13143;50.924;5.320;2023-07-30T02:36:24;19.20;99.90
25192;DHT22;13143;50.924;5.320;2023-07-30T02:38:50;19.10;99.90
25192;DHT22;13143;50.924;5.320;2023-07-30T02:41:16;19.10;99.90
25192;DHT22;13143;50.924;5.320;2023-07-30T02:43:43;19.10;99.90
25192;DHT22;13143;50.924;5.320;2023-07-30T02:46:09;19.10;99.90
25192;DHT22;13143;50.924;5.320;2023-07-30T02:48:35;19.00;99.90
25192;DHT22;13143;50.924;5.320;2023-07-30T02:51:01;19.00;99.90
25192;DHT22;13143;50.924;5.320;2023-07-30T02:53:28;19.00;99.90
25192;DHT22;13143;50.924;5.320;2023-07-30T02:55:54;19.00;99.90
25192;DHT22;13143;50.924;5.320;2023-07-30T02:58:20;19.00;99.90
25192;DHT22;13143;50.924;5.320;2023-07-30T03:00:46;19.00;99.90
25192;DHT22;13143;50.924;5.320;2023-07-30T03:03:13;18.90;99.90
25192;DHT22;13143;50.924;5.320;2023-07-30T03:05:42;18.90;99.90
25192;DHT22;13143;50.924;5.320;2023-07-30T03:08:08;18.90;99.90
25192;DHT22;13143;50.924;5.320;2023-07-30T03:10:36;18.90;99.90
25192;DHT22;13143;50.924;5.320;2023-07-30T03:13:02;18.90;99.90
25192;DHT22;13143;50.924;5.320;2023-07-30T03:15:28;18.80;99.90
25192;DHT22;13143;50.924;5.320;2023-07-30T03:17:55;18.80;99.90
25192;DHT22;13143;50.924;5.320;2023-07-30T03:20:21;18.80;99.90
25192;DHT22;13143;50.924;5.320;2023-07-30T03:22:47;18.80;99.90
25192;DHT22;13143;50.924;5.320;2023-07-30T03:25:13;18.70;99.90
25192;DHT22;13143;50.924;5.320;2023-07-30T03:27:39;18.70;99.90
25192;DHT22;13143;50.924;5.320;2023-07-30T03:30:06;18.70;99.90
25192;DHT22;13143;50.924;5.320;2023-07-30T03:32:32;18.70;99.90
25192;DHT22;13143;50.924;5.320;2023-07-30T03:34:58;18.70;99.90
25192;DHT22;13143;50.924;5.320;2023-07-30T03:37:24;18.70;99.90
25192;DHT22;13143;50.924;5.320;2023-07-30T03:39:50;18.60;99.90
25192;DHT22;13143;50.924;5.320;2023-07-30T03:42:17;18.60;99.90
25192;DHT22;13143;50.924;5.320;2023-07-30T03:44:43;18.60;99.90
25192;DHT22;13143;50.924;5.320;2023-07-30T03:47:09;18.50;99.90
25192;DHT22;13143;50.924;5.320;2023-07-30T03:49:35;18.50;99.90
25192;DHT22;13143;50.924;5.320;2023-07-30T03:52:01;18.50;99.90
25192;DHT22;13143;50.924;5.320;2023-07-30T03:54:27;18.50;99.90
25192;DHT22;13143;50.924;5.320;2023-07-30T03:56:53;18.50;99.90
25192;DHT22;13143;50.924;5.320;2023-07-30T03:59:19;18.40;99.90
25192;DHT22;13143;50.924;5.320;2023-07-30T04:01:46;18.40;99.90
25192;DHT22;13143;50.924;5.320;2023-07-30T04:04:12;18.40;99.90
25192;DHT22;13143;50.924;5.320;2023-07-30T04:06:38;18.30;99.90
25192;DHT22;13143;50.924;5.320;2023-07-30T04:09:04;18.30;99.90
25192;DHT22;13143;50.924;5.320;2023-07-30T04:11:30;18.30;99.90
25192;DHT22;13143;50.924;5.320;2023-07-30T04:13:56;18.30;99.90
25192;DHT22;13143;50.924;5.320;2023-07-30T04:16:22;18.30;99.90
25192;DHT22;13143;50.924;5.320;2023-07-30T04:18:49;18.30;99.90
25192;DHT22;13143;50.924;5.320;2023-07-30T04:21:15;18.30;99.90
25192;DHT22;13143;50.924;5.320;2023-07-30T04:23:41;18.20;99.90
25192;DHT22;13143;50.924;5.320;2023-07-30T04:26:07;18.20;99.90
25192;DHT22;13143;50.924;5.320;2023-07-30T04:28:33;18.20;99.90
25192;DHT22;13143;50.924;5.320;2023-07-30T04:30:59;18.10;99.90
25192;DHT22;13143;50.924;5.320;2023-07-30T04:33:26;18.10;99.90
25192;DHT22;13143;50.924;5.320;2023-07-30T04:35:52;18.10;99.90
25192;DHT22;13143;50.924;5.320;2023-07-30T04:38:18;18.10;99.90
25192;DHT22;13143;50.924;5.320;2023-07-30T04:40:44;18.10;99.90
25192;DHT22;13143;50.924;5.320;2023-07-30T04:43:11;18.10;99.90
25192;DHT22;13143;50.924;5.320;2023-07-30T04:45:37;18.00;99.90
25192;DHT22;13143;50.924;5.320;2023-07-30T04:48:03;18.10;99.90
25192;DHT22;13143;50.924;5.320;2023-07-30T04:50:29;18.00;99.90
25192;DHT22;13143;50.924;5.320;2023-07-30T04:52:55;18.00;99.90
25192;DHT22;13143;50.924;5.320;2023-07-30T04:55:21;18.00;99.90
25192;DHT22;13143;50.924;5.320;2023-07-30T04:57:48;18.00;99.90
25192;DHT22;13143;50.924;5.320;2023-07-30T05:00:14;18.00;99.90
25192;DHT22;13143;50.924;5.320;2023-07-30T05:02:40;18.00;99.90
25192;DHT22;13143;50.924;5.320;2023-07-30T05:05:06;18.00;99.90
25192;DHT22;13143;50.924;5.320;2023-07-30T05:07:32;18.00;99.90
25192;DHT22;13143;50.924;5.320;2023-07-30T05:09:59;18.00;99.90
25192;DHT22;13143;50.924;5.320;2023-07-30T05:12:25;18.00;99.90
25192;DHT22;13143;50.924;5.320;2023-07-30T05:14:52;18.00;99.90
25192;DHT22;13143;50.924;5.320;2023-07-30T05:17:18;18.00;99.90
25192;DHT22;13143;50.924;5.320;2023-07-30T05:19:44;18.00;99.90
25192;DHT22;13143;50.924;5.320;2023-07-30T05:22:10;17.90;99.90
25192;DHT22;13143;50.924;5.320;2023-07-30T05:24:36;17.90;99.90
25192;DHT22;13143;50.924;5.320;2023-07-30T05:27:03;17.90;99.90
25192;DHT22;13143;50.924;5.320;2023-07-30T05:29:29;18.00;99.90
25192;DHT22;13143;50.924;5.320;2023-07-30T05:31:55;17.90;99.90
25192;DHT22;13143;50.924;5.320;2023-07-30T05:34:21;17.90;99.90
25192;DHT22;13143;50.924;5.320;2023-07-30T05:36:48;17.90;99.90
25192;DHT22;13143;50.924;5.320;2023-07-30T05:39:14;17.90;99.90
25192;DHT22;13143;50.924;5.320;2023-07-30T05:41:40;17.90;99.90
25192;DHT22;13143;50.924;5.320;2023-07-30T05:44:06;17.90;99.90
25192;DHT22;13143;50.924;5.320;2023-07-30T05:46:33;17.90;99.90
25192;DHT22;13143;50.924;5.320;2023-07-30T05:49:00;17.90;99.90
25192;DHT22;13143;50.924;5.320;2023-07-30T05:51:26;17.90;99.90
25192;DHT22;13143;50.924;5.320;2023-07-30T05:53:52;17.90;99.90
25192;DHT22;13143;50.924;5.320;2023-07-30T05:56:18;17.90;99.90
25192;DHT22;13143;50.924;5.320;2023-07-30T05:58:45;17.90;99.90
25192;DHT22;13143;50.924;5.320;2023-07-30T06:01:12;17.90;99.90
25192;DHT22;13143;50.924;5.320;2023-07-30T06:03:38;17.90;99.90
25192;DHT22;13143;50.924;5.320;2023-07-30T06:06:04;17.90;99.90
25192;DHT22;13143;50.924;5.320;2023-07-30T06:08:30;17.90;99.90
25192;DHT22;13143;50.924;5.320;2023-07-30T06:11:01;17.90;99.90
25192;DHT22;13143;50.924;5.320;2023-07-30T06:13:29;17.90;99.90
25192;DHT22;13143;50.924;5.320;2023-07-30T06:15:55;18.00;99.90
25192;DHT22;13143;50.924;5.320;2023-07-30T06:18:22;17.90;99.90
25192;DHT22;13143;50.924;5.320;2023-07-30T06:20:48;18.00;99.90
25192;DHT22;13143;50.924;5.320;2023-07-30T06:23:14;17.90;99.90
25192;DHT22;13143;50.924;5.320;2023-07-30T06:25:40;17.90;99.90
25192;DHT22;13143;50.924;5.320;2023-07-30T06:28:06;17.90;99.90
25192;DHT22;13143;50.924;5.320;2023-07-30T06:30:32;18.00;99.90
25192;DHT22;13143;50.924;5.320;2023-07-30T06:32:58;18.00;99.90
25192;DHT22;13143;50.924;5.320;2023-07-30T06:35:25;18.00;99.90
25192;DHT22;13143;50.924;5.320;2023-07-30T06:37:51;18.00;99.90
25192;DHT22;13143;50.924;5.320;2023-07-30T06:40:17;18.00;99.90
25192;DHT22;13143;50.924;5.320;2023-07-30T06:42:43;18.00;99.90
25192;DHT22;13143;50.924;5.320;2023-07-30T06:45:09;18.00;99.90
25192;DHT22;13143;50.924;5.320;2023-07-30T06:47:36;18.00;99.90
25192;DHT22;13143;50.924;5.320;2023-07-30T06:50:02;18.00;99.90
25192;DHT22;13143;50.924;5.320;2023-07-30T06:52:28;18.00;99.90
25192;DHT22;13143;50.924;5.320;2023-07-30T06:54:55;18.00;99.90
25192;DHT22;13143;50.924;5.320;2023-07-30T06:57:21;18.00;99.90
25192;DHT22;13143;50.924;5.320;2023-07-30T06:59:47;18.00;99.90
25192;DHT22;13143;50.924;5.320;2023-07-30T07:02:13;18.00;99.90
25192;DHT22;13143;50.924;5.320;2023-07-30T07:04:39;18.00;99.90
25192;DHT22;13143;50.924;5.320;2023-07-30T07:07:05;18.00;99.90
25192;DHT22;13143;50.924;5.320;2023-07-30T07:09:32;18.00;99.90
25192;DHT22;13143;50.924;5.320;2023-07-30T07:11:58;18.00;99.90
25192;DHT22;13143;50.924;5.320;2023-07-30T07:14:25;18.10;99.90
25192;DHT22;13143;50.924;5.320;2023-07-30T07:16:53;18.00;99.90
25192;DHT22;13143;50.924;5.320;2023-07-30T07:19:20;18.10;99.90
25192;DHT22;13143;50.924;5.320;2023-07-30T07:21:46;18.10;99.90
25192;DHT22;13143;50.924;5.320;2023-07-30T07:24:12;18.00;99.90
25192;DHT22;13143;50.924;5.320;2023-07-30T07:26:39;18.10;99.90
25192;DHT22;13143;50.924;5.320;2023-07-30T07:29:05;18.10;99.90
25192;DHT22;13143;50.924;5.320;2023-07-30T07:31:31;18.10;99.90
25192;DHT22;13143;50.924;5.320;2023-07-30T07:33:58;18.10;99.90
25192;DHT22;13143;50.924;5.320;2023-07-30T07:36:24;18.20;99.90
25192;DHT22;13143;50.924;5.320;2023-07-30T07:38:50;18.10;99.90
25192;DHT22;13143;50.924;5.320;2023-07-30T07:41:17;18.10;99.90
25192;DHT22;13143;50.924;5.320;2023-07-30T07:43:45;18.20;99.90
25192;DHT22;13143;50.924;5.320;2023-07-30T07:46:11;18.20;99.90
25192;DHT22;13143;50.924;5.320;2023-07-30T07:48:41;18.20;99.90
25192;DHT22;13143;50.924;5.320;2023-07-30T07:51:09;18.20;99.90
25192;DHT22;13143;50.924;5.320;2023-07-30T07:53:37;18.20;99.90
25192;DHT22;13143;50.924;5.320;2023-07-30T07:56:03;18.20;99.90
25192;DHT22;13143;50.924;5.320;2023-07-30T07:58:30;18.20;99.90
25192;DHT22;13143;50.924;5.320;2023-07-30T08:00:56;18.30;99.90
25192;DHT22;13143;50.924;5.320;2023-07-30T08:03:23;18.30;99.90
25192;DHT22;13143;50.924;5.320;2023-07-30T08:05:49;18.30;99.90
25192;DHT22;13143;50.924;5.320;2023-07-30T08:08:17;18.30;99.90
25192;DHT22;13143;50.924;5.320;2023-07-30T08:10:43;18.30;99.90
25192;DHT22;13143;50.924;5.320;2023-07-30T08:13:11;18.40;99.90
25192;DHT22;13143;50.924;5.320;2023-07-30T08:15:37;18.40;99.90
25192;DHT22;13143;50.924;5.320;2023-07-30T08:18:03;18.40;99.90
25192;DHT22;13143;50.924;5.320;2023-07-30T08:20:29;18.40;99.90
25192;DHT22;13143;50.924;5.320;2023-07-30T08:22:55;18.40;99.90
25192;DHT22;13143;50.924;5.320;2023-07-30T08:25:21;18.40;99.90
25192;DHT22;13143;50.924;5.320;2023-07-30T08:27:47;18.50;99.90
25192;DHT22;13143;50.924;5.320;2023-07-30T08:30:14;18.50;99.90
25192;DHT22;13143;50.924;5.320;2023-07-30T08:32:40;18.50;99.90
25192;DHT22;13143;50.924;5.320;2023-07-30T08:35:09;18.50;99.90
25192;DHT22;13143;50.924;5.320;2023-07-30T08:37:36;18.50;99.90
25192;DHT22;13143;50.924;5.320;2023-07-30T08:40:03;18.60;99.90
25192;DHT22;13143;50.924;5.320;2023-07-30T08:42:29;18.60;99.90
25192;DHT22;13143;50.924;5.320;2023-07-30T08:44:55;18.60;99.90
25192;DHT22;13143;50.924;5.320;2023-07-30T08:47:21;18.60;99.90
25192;DHT22;13143;50.924;5.320;2023-07-30T08:49:48;18.70;99.90
25192;DHT22;13143;50.924;5.320;2023-07-30T08:52:16;18.70;99.90
25192;DHT22;13143;50.924;5.320;2023-07-30T08:54:44;18.70;99.90
25192;DHT22;13143;50.924;5.320;2023-07-30T08:57:12;18.80;99.90
25192;DHT22;13143;50.924;5.320;2023-07-30T08:59:51;18.80;99.90
25192;DHT22;13143;50.924;5.320;2023-07-30T09:02:30;18.80;99.90
25192;DHT22;13143;50.924;5.320;2023-07-30T09:05:00;18.80;99.90
25192;DHT22;13143;50.924;5.320;2023-07-30T09:07:27;18.90;99.90
25192;DHT22;13143;50.924;5.320;2023-07-30T09:09:54;18.90;99.90
25192;DHT22;13143;50.924;5.320;2023-07-30T09:12:20;18.90;99.90
25192;DHT22;13143;50.924;5.320;2023-07-30T09:14:51;18.90;99.90
25192;DHT22;13143;50.924;5.320;2023-07-30T09:17:18;19.00;99.90
25192;DHT22;13143;50.924;5.320;2023-07-30T09:19:44;19.00;99.90
25192;DHT22;13143;50.924;5.320;2023-07-30T09:22:13;19.00;99.90
25192;DHT22;13143;50.924;5.320;2023-07-30T09:24:45;19.00;99.90
25192;DHT22;13143;50.924;5.320;2023-07-30T09:27:11;19.00;99.90
25192;DHT22;13143;50.924;5.320;2023-07-30T09:29:38;19.10;99.90
25192;DHT22;13143;50.924;5.320;2023-07-30T09:32:07;19.10;99.90
25192;DHT22;13143;50.924;5.320;2023-07-30T09:34:33;19.10;99.90
25192;DHT22;13143;50.924;5.320;2023-07-30T09:37:00;19.10;99.90
25192;DHT22;13143;50.924;5.320;2023-07-30T09:39:28;19.20;99.90
25192;DHT22;13143;50.924;5.320;2023-07-30T09:42:00;19.20;99.90
25192;DHT22;13143;50.924;5.320;2023-07-30T09:44:27;19.20;99.90
25192;DHT22;13143;50.924;5.320;2023-07-30T09:46:53;19.20;99.90
25192;DHT22;13143;50.924;5.320;2023-07-30T09:49:19;19.20;99.90
25192;DHT22;13143;50.924;5.320;2023-07-30T09:51:45;19.20;99.90
25192;DHT22;13143;50.924;5.320;2023-07-30T09:54:13;19.30;99.90
25192;DHT22;13143;50.924;5.320;2023-07-30T09:56:41;19.30;99.90
25192;DHT22;13143;50.924;5.320;2023-07-30T09:59:08;19.30;99.90
25192;DHT22;13143;50.924;5.320;2023-07-30T10:01:42;19.30;99.90
25192;DHT22;13143;50.924;5.320;2023-07-30T10:04:10;19.30;99.90
25192;DHT22;13143;50.924;5.320;2023-07-30T10:09:15;19.30;99.90
25192;DHT22;13143;50.924;5.320;2023-07-30T10:11:45;19.40;99.90
25192;DHT22;13143;50.924;5.320;2023-07-30T10:14:13;19.40;99.90
25192;DHT22;13143;50.924;5.320;2023-07-30T10:16:53;19.40;99.90
25192;DHT22;13143;50.924;5.320;2023-07-30T10:19:26;19.40;99.90
25192;DHT22;13143;50.924;5.320;2023-07-30T10:24:40;19.40;99.90
25192;DHT22;13143;50.924;5.320;2023-07-30T10:27:07;19.40;99.90
25192;DHT22;13143;50.924;5.320;2023-07-30T10:29:39;19.40;99.90
25192;DHT22;13143;50.924;5.320;2023-07-30T10:32:07;19.40;99.90
25192;DHT22;13143;50.924;5.320;2023-07-30T10:34:47;19.40;99.90
25192;DHT22;13143;50.924;5.320;2023-07-30T10:37:31;19.30;99.90
25192;DHT22;13143;50.924;5.320;2023-07-30T10:39:57;19.30;99.90
25192;DHT22;13143;50.924;5.320;2023-07-30T10:42:24;19.30;99.90
25192;DHT22;13143;50.924;5.320;2023-07-30T10:44:58;19.30;99.90
25192;DHT22;13143;50.924;5.320;2023-07-30T10:47:27;19.30;99.90
25192;DHT22;13143;50.924;5.320;2023-07-30T10:49:53;19.30;99.90
25192;DHT22;13143;50.924;5.320;2023-07-30T10:52:25;19.30;99.90
25192;DHT22;13143;50.924;5.320;2023-07-30T10:55:00;19.30;99.90
25192;DHT22;13143;50.924;5.320;2023-07-30T10:57:30;19.30;99.90
25192;DHT22;13143;50.924;5.320;2023-07-30T10:59:59;19.30;99.90
25192;DHT22;13143;50.924;5.320;2023-07-30T11:02:25;19.30;99.90
25192;DHT22;13143;50.924;5.320;2023-07-30T11:04:51;19.30;99.90
25192;DHT22;13143;50.924;5.320;2023-07-30T11:07:18;19.30;99.90
25192;DHT22;13143;50.924;5.320;2023-07-30T11:09:45;19.30;99.90
25192;DHT22;13143;50.924;5.320;2023-07-30T11:12:12;19.30;99.90
25192;DHT22;13143;50.924;5.320;2023-07-30T11:14:40;19.30;99.90
25192;DHT22;13143;50.924;5.320;2023-07-30T11:17:06;19.30;99.90
25192;DHT22;13143;50.924;5.320;2023-07-30T11:19:33;19.30;99.90
25192;DHT22;13143;50.924;5.320;2023-07-30T11:21:59;19.30;99.90
25192;DHT22;13143;50.924;5.320;2023-07-30T11:24:36;19.30;99.90
25192;DHT22;13143;50.924;5.320;2023-07-30T11:27:03;19.30;99.90
25192;DHT22;13143;50.924;5.320;2023-07-30T11:29:29;19.30;99.90
25192;DHT22;13143;50.924;5.320;2023-07-30T11:31:57;19.30;99.90
25192;DHT22;13143;50.924;5.320;2023-07-30T11:34:25;19.30;99.90
25192;DHT22;13143;50.924;5.320;2023-07-30T11:36:53;19.30;99.90
25192;DHT22;13143;50.924;5.320;2023-07-30T11:39:20;19.30;99.90
25192;DHT22;13143;50.924;5.320;2023-07-30T11:41:46;19.30;99.90
25192;DHT22;13143;50.924;5.320;2023-07-30T11:46:57;19.40;99.90
25192;DHT22;13143;50.924;5.320;2023-07-30T11:49:23;19.40;99.90
25192;DHT22;13143;50.924;5.320;2023-07-30T11:51:49;19.40;99.90
25192;DHT22;13143;50.924;5.320;2023-07-30T11:54:20;19.40;99.90
25192;DHT22;13143;50.924;5.320;2023-07-30T11:56:47;19.40;99.90
25192;DHT22;13143;50.924;5.320;2023-07-30T11:59:13;19.50;99.90
25192;DHT22;13143;50.924;5.320;2023-07-30T12:01:42;19.50;99.90
25192;DHT22;13143;50.924;5.320;2023-07-30T12:04:08;19.50;99.90
25192;DHT22;13143;50.924;5.320;2023-07-30T12:06:45;19.50;99.90
25192;DHT22;13143;50.924;5.320;2023-07-30T12:14:15;19.60;99.90
25192;DHT22;13143;50.924;5.320;2023-07-30T12:16:41;19.60;99.90
25192;DHT22;13143;50.924;5.320;2023-07-30T12:19:07;19.60;99.90
25192;DHT22;13143;50.924;5.320;2023-07-30T12:21:34;19.60;99.90
25192;DHT22;13143;50.924;5.320;2023-07-30T12:24:00;19.60;99.90
25192;DHT22;13143;50.924;5.320;2023-07-30T12:26:26;19.70;99.90
25192;DHT22;13143;50.924;5.320;2023-07-30T12:28:52;19.70;99.90
25192;DHT22;13143;50.924;5.320;2023-07-30T12:31:18;19.70;99.90
25192;DHT22;13143;50.924;5.320;2023-07-30T12:33:44;19.80;99.90
25192;DHT22;13143;50.924;5.320;2023-07-30T12:36:10;19.80;99.90
25192;DHT22;13143;50.924;5.320;2023-07-30T12:38:39;19.80;99.90
25192;DHT22;13143;50.924;5.320;2023-07-30T12:41:05;19.80;99.90
25192;DHT22;13143;50.924;5.320;2023-07-30T12:43:31;19.90;99.90
25192;DHT22;13143;50.924;5.320;2023-07-30T12:45:57;19.90;99.90
25192;DHT22;13143;50.924;5.320;2023-07-30T12:48:24;19.90;99.90
25192;DHT22;13143;50.924;5.320;2023-07-30T12:50:50;19.90;99.90
25192;DHT22;13143;50.924;5.320;2023-07-30T12:53:16;20.00;99.90
25192;DHT22;13143;50.924;5.320;2023-07-30T12:55:42;20.00;99.90
25192;DHT22;13143;50.924;5.320;2023-07-30T12:58:08;20.00;99.90
25192;DHT22;13143;50.924;5.320;2023-07-30T13:00:34;20.00;99.90
25192;DHT22;13143;50.924;5.320;2023-07-30T13:03:01;20.10;99.90
25192;DHT22;13143;50.924;5.320;2023-07-30T13:05:28;20.10;99.90
25192;DHT22;13143;50.924;5.320;2023-07-30T13:07:54;20.10;99.90
25192;DHT22;13143;50.924;5.320;2023-07-30T13:10:20;20.10;99.90
25192;DHT22;13143;50.924;5.320;2023-07-30T13:12:46;20.10;99.90
25192;DHT22;13143;50.924;5.320;2023-07-30T13:15:12;20.20;99.90
25192;DHT22;13143;50.924;5.320;2023-07-30T13:17:38;20.20;99.90
25192;DHT22;13143;50.924;5.320;2023-07-30T13:20:05;20.20;99.90
25192;DHT22;13143;50.924;5.320;2023-07-30T13:22:31;20.20;99.90
25192;DHT22;13143;50.924;5.320;2023-07-30T13:24:58;20.30;99.90
25192;DHT22;13143;50.924;5.320;2023-07-30T13:27:24;20.30;99.90
25192;DHT22;13143;50.924;5.320;2023-07-30T13:29:50;20.30;99.90
25192;DHT22;13143;50.924;5.320;2023-07-30T13:32:16;20.40;99.90
25192;DHT22;13143;50.924;5.320;2023-07-30T13:34:43;20.40;99.90
25192;DHT22;13143;50.924;5.320;2023-07-30T13:37:09;20.40;99.90
25192;DHT22;13143;50.924;5.320;2023-07-30T13:39:35;20.50;99.90
25192;DHT22;13143;50.924;5.320;2023-07-30T13:42:02;20.50;99.90
25192;DHT22;13143;50.924;5.320;2023-07-30T13:44:28;20.50;99.90
25192;DHT22;13143;50.924;5.320;2023-07-30T13:46:54;20.60;99.90
25192;DHT22;13143;50.924;5.320;2023-07-30T13:49:20;20.60;99.90
25192;DHT22;13143;50.924;5.320;2023-07-30T13:51:46;20.70;99.90
25192;DHT22;13143;50.924;5.320;2023-07-30T13:54:12;20.70;99.90
25192;DHT22;13143;50.924;5.320;2023-07-30T13:56:39;20.70;99.90
25192;DHT22;13143;50.924;5.320;2023-07-30T13:59:05;20.70;99.90
25192;DHT22;13143;50.924;5.320;2023-07-30T14:01:31;20.80;99.90
25192;DHT22;13143;50.924;5.320;2023-07-30T14:03:57;20.80;99.90
25192;DHT22;13143;50.924;5.320;2023-07-30T14:06:24;20.80;99.90
25192;DHT22;13143;50.924;5.320;2023-07-30T14:08:50;20.80;99.90
25192;DHT22;13143;50.924;5.320;2023-07-30T14:11:16;20.90;99.90
25192;DHT22;13143;50.924;5.320;2023-07-30T14:13:42;20.90;99.90
25192;DHT22;13143;50.924;5.320;2023-07-30T14:16:08;20.90;99.90
25192;DHT22;13143;50.924;5.320;2023-07-30T14:18:34;20.90;99.90
25192;DHT22;13143;50.924;5.320;2023-07-30T14:21:01;20.90;99.90
25192;DHT22;13143;50.924;5.320;2023-07-30T14:23:28;21.00;99.90
25192;DHT22;13143;50.924;5.320;2023-07-30T14:25:54;21.00;99.90
25192;DHT22;13143;50.924;5.320;2023-07-30T14:28:20;21.00;99.90
25192;DHT22;13143;50.924;5.320;2023-07-30T14:30:47;21.00;99.90
25192;DHT22;13143;50.924;5.320;2023-07-30T14:33:13;21.10;99.90
25192;DHT22;13143;50.924;5.320;2023-07-30T14:35:40;21.10;99.90
25192;DHT22;13143;50.924;5.320;2023-07-30T14:38:06;21.10;99.90
25192;DHT22;13143;50.924;5.320;2023-07-30T14:40:32;21.10;99.90
25192;DHT22;13143;50.924;5.320;2023-07-30T14:42:59;21.20;99.90
25192;DHT22;13143;50.924;5.320;2023-07-30T14:45:25;21.20;99.90
25192;DHT22;13143;50.924;5.320;2023-07-30T14:47:51;21.20;99.90
25192;DHT22;13143;50.924;5.320;2023-07-30T14:50:17;21.20;99.90
25192;DHT22;13143;50.924;5.320;2023-07-30T14:52:43;21.30;99.90
25192;DHT22;13143;50.924;5.320;2023-07-30T14:55:10;21.30;99.90
25192;DHT22;13143;50.924;5.320;2023-07-30T14:57:36;21.30;99.90
25192;DHT22;13143;50.924;5.320;2023-07-30T15:00:02;21.30;99.90
25192;DHT22;13143;50.924;5.320;2023-07-30T15:02:29;21.40;99.90
25192;DHT22;13143;50.924;5.320;2023-07-30T15:04:56;21.40;99.90
25192;DHT22;13143;50.924;5.320;2023-07-30T15:07:22;21.40;99.90
25192;DHT22;13143;50.924;5.320;2023-07-30T15:09:54;21.40;99.90
25192;DHT22;13143;50.924;5.320;2023-07-30T15:12:20;21.50;99.90
25192;DHT22;13143;50.924;5.320;2023-07-30T15:14:46;21.50;99.90
25192;DHT22;13143;50.924;5.320;2023-07-30T15:17:13;21.50;99.90
25192;DHT22;13143;50.924;5.320;2023-07-30T15:19:39;21.50;99.90
25192;DHT22;13143;50.924;5.320;2023-07-30T15:22:06;21.50;99.90
25192;DHT22;13143;50.924;5.320;2023-07-30T15:24:32;21.50;99.90
25192;DHT22;13143;50.924;5.320;2023-07-30T15:26:58;21.50;99.90
25192;DHT22;13143;50.924;5.320;2023-07-30T15:29:24;21.50;99.90
25192;DHT22;13143;50.924;5.320;2023-07-30T15:31:50;21.50;99.90
25192;DHT22;13143;50.924;5.320;2023-07-30T15:34:17;21.50;99.90
25192;DHT22;13143;50.924;5.320;2023-07-30T15:36:44;21.60;99.90
25192;DHT22;13143;50.924;5.320;2023-07-30T15:39:10;21.60;99.90
25192;DHT22;13143;50.924;5.320;2023-07-30T15:41:36;21.60;99.90